sensor_id;sensor_type;location;lat;lon;timestamp;temperature;humidity
36280;DHT22;22317;47.936;12.742;2023-12-22T00:01:10;3.70;62.10
36280;DHT22;22317;47.936;12.742;2023-12-22T00:03:37;3.70;62.00
36280;DHT22;22317;47.936;12.742;2023-12-22T00:06:04;3.70;61.80
36280;DHT22;22317;47.936;12.742;2023-12-22T00:08:29;3.50;61.50
36280;DHT22;22317;47.936;12.742;2023-12-22T00:10:55;3.40;61.20
36280;DHT22;22317;47.936;12.742;2023-12-22T00:13:21;3.20;60.60
36280;DHT22;22317;47.936;12.742;2023-12-22T00:15:47;3.10;60.60
36280;DHT22;22317;47.936;12.742;2023-12-22T00:18:12;2.90;60.50
36280;DHT22;22317;47.936;12.742;2023-12-22T00:20:38;2.80;60.50
36280;DHT22;22317;47.936;12.742;2023-12-22T00:23:04;2.70;60.70
36280;DHT22;22317;47.936;12.742;2023-12-22T00:25:29;2.70;60.70
36280;DHT22;22317;47.936;12.742;2023-12-22T00:27:55;2.60;60.90
36280;DHT22;22317;47.936;12.742;2023-12-22T00:30:21;2.50;61.50
36280;DHT22;22317;47.936;12.742;2023-12-22T00:32:46;2.50;61.10
36280;DHT22;22317;47.936;12.742;2023-12-22T00:35:13;2.40;61.10
36280;DHT22;22317;47.936;12.742;2023-12-22T00:37:39;2.40;61.10
36280;DHT22;22317;47.936;12.742;2023-12-22T00:40:05;2.40;61.60
36280;DHT22;22317;47.936;12.742;2023-12-22T00:42:32;2.30;61.30
36280;DHT22;22317;47.936;12.742;2023-12-22T00:44:58;2.30;61.20
36280;DHT22;22317;47.936;12.742;2023-12-22T00:47:24;2.20;61.10
36280;DHT22;22317;47.936;12.742;2023-12-22T00:49:49;2.20;61.10
36280;DHT22;22317;47.936;12.742;2023-12-22T00:54:41;2.10;61.30
36280;DHT22;22317;47.936;12.742;2023-12-22T00:57:07;2.20;62.00
36280;DHT22;22317;47.936;12.742;2023-12-22T00:59:32;2.10;61.20
36280;DHT22;22317;47.936;12.742;2023-12-22T01:01:58;2.10;61.10
36280;DHT22;22317;47.936;12.742;2023-12-22T01:04:24;2.10;61.70
36280;DHT22;22317;47.936;12.742;2023-12-22T01:06:50;2.00;61.70
36280;DHT22;22317;47.936;12.742;2023-12-22T01:09:15;2.00;61.60
36280;DHT22;22317;47.936;12.742;2023-12-22T01:11:41;1.90;61.70
36280;DHT22;22317;47.936;12.742;2023-12-22T01:16:33;1.80;61.20
36280;DHT22;22317;47.936;12.742;2023-12-22T01:18:59;1.70;61.20
36280;DHT22;22317;47.936;12.742;2023-12-22T01:26:17;1.70;61.50
36280;DHT22;22317;47.936;12.742;2023-12-22T01:28:42;1.60;61.40
36280;DHT22;22317;47.936;12.742;2023-12-22T01:31:08;1.50;61.20
36280;DHT22;22317;47.936;12.742;2023-12-22T01:33:34;1.50;61.50
36280;DHT22;22317;47.936;12.742;2023-12-22T01:36:00;1.50;61.70
36280;DHT22;22317;47.936;12.742;2023-12-22T01:43:18;1.40;61.70
36280;DHT22;22317;47.936;12.742;2023-12-22T01:45:56;1.40;61.90
36280;DHT22;22317;47.936;12.742;2023-12-22T01:48:25;1.40;62.10
36280;DHT22;22317;47.936;12.742;2023-12-22T01:50:52;1.50;62.10
36280;DHT22;22317;47.936;12.742;2023-12-22T01:53:20;1.40;61.90
36280;DHT22;22317;47.936;12.742;2023-12-22T01:55:48;1.40;61.80
36280;DHT22;22317;47.936;12.742;2023-12-22T01:58:14;1.40;61.80
36280;DHT22;22317;47.936;12.742;2023-12-22T02:00:40;1.50;62.00
36280;DHT22;22317;47.936;12.742;2023-12-22T02:03:06;1.40;61.90
36280;DHT22;22317;47.936;12.742;2023-12-22T02:05:33;1.40;61.90
36280;DHT22;22317;47.936;12.742;2023-12-22T02:10:25;1.40;61.80
36280;DHT22;22317;47.936;12.742;2023-12-22T02:17:57;1.20;61.60
36280;DHT22;22317;47.936;12.742;2023-12-22T02:22:54;1.10;62.00
36280;DHT22;22317;47.936;12.742;2023-12-22T02:25:21;1.20;62.20
36280;DHT22;22317;47.936;12.742;2023-12-22T02:27:53;1.10;62.10
36280;DHT22;22317;47.936;12.742;2023-12-22T02:30:32;1.10;62.10
36280;DHT22;22317;47.936;12.742;2023-12-22T02:33:02;1.20;62.10
36280;DHT22;22317;47.936;12.742;2023-12-22T02:35:32;1.10;62.10
36280;DHT22;22317;47.936;12.742;2023-12-22T02:37:58;1.10;62.10
36280;DHT22;22317;47.936;12.742;2023-12-22T02:40:26;1.00;61.90
36280;DHT22;22317;47.936;12.742;2023-12-22T02:42:52;1.00;62.10
36280;DHT22;22317;47.936;12.742;2023-12-22T02:45:19;1.00;62.30
36280;DHT22;22317;47.936;12.742;2023-12-22T02:47:46;1.00;62.40
36280;DHT22;22317;47.936;12.742;2023-12-22T02:50:13;1.00;62.30
36280;DHT22;22317;47.936;12.742;2023-12-22T02:52:40;1.00;62.40
36280;DHT22;22317;47.936;12.742;2023-12-22T02:55:06;1.00;62.50
36280;DHT22;22317;47.936;12.742;2023-12-22T02:57:32;0.90;62.30
36280;DHT22;22317;47.936;12.742;2023-12-22T02:59:58;0.90;62.50
36280;DHT22;22317;47.936;12.742;2023-12-22T03:04:50;0.80;62.20
36280;DHT22;22317;47.936;12.742;2023-12-22T03:09:43;0.70;62.20
36280;DHT22;22317;47.936;12.742;2023-12-22T03:12:09;0.70;62.50
36280;DHT22;22317;47.936;12.742;2023-12-22T03:14:35;0.60;62.70
36280;DHT22;22317;47.936;12.742;2023-12-22T03:17:05;0.70;62.90
36280;DHT22;22317;47.936;12.742;2023-12-22T03:19:32;0.60;62.80
36280;DHT22;22317;47.936;12.742;2023-12-22T03:21:59;0.60;62.80
36280;DHT22;22317;47.936;12.742;2023-12-22T03:24:25;0.60;62.90
36280;DHT22;22317;47.936;12.742;2023-12-22T03:26:52;0.60;62.90
36280;DHT22;22317;47.936;12.742;2023-12-22T03:29:18;0.60;63.10
36280;DHT22;22317;47.936;12.742;2023-12-22T03:31:45;0.60;63.20
36280;DHT22;22317;47.936;12.742;2023-12-22T03:34:11;0.70;63.50
36280;DHT22;22317;47.936;12.742;2023-12-22T03:36:36;0.70;63.60
36280;DHT22;22317;47.936;12.742;2023-12-22T03:39:03;0.80;63.50
36280;DHT22;22317;47.936;12.742;2023-12-22T03:41:29;0.80;63.40
36280;DHT22;22317;47.936;12.742;2023-12-22T03:43:56;0.80;63.40
36280;DHT22;22317;47.936;12.742;2023-12-22T03:46:22;0.90;63.50
36280;DHT22;22317;47.936;12.742;2023-12-22T03:48:49;0.90;63.50
36280;DHT22;22317;47.936;12.742;2023-12-22T03:51:14;0.90;63.40
36280;DHT22;22317;47.936;12.742;2023-12-22T03:53:41;1.00;63.40
36280;DHT22;22317;47.936;12.742;2023-12-22T03:56:10;0.90;63.30
36280;DHT22;22317;47.936;12.742;2023-12-22T03:58:36;1.00;63.20
36280;DHT22;22317;47.936;12.742;2023-12-22T04:03:28;1.00;63.40
36280;DHT22;22317;47.936;12.742;2023-12-22T04:05:54;1.00;63.40
36280;DHT22;22317;47.936;12.742;2023-12-22T04:08:20;0.90;63.40
36280;DHT22;22317;47.936;12.742;2023-12-22T04:10:46;1.00;63.50
36280;DHT22;22317;47.936;12.742;2023-12-22T04:18:05;1.00;63.40
36280;DHT22;22317;47.936;12.742;2023-12-22T04:20:30;1.00;63.20
36280;DHT22;22317;47.936;12.742;2023-12-22T04:22:57;0.90;63.10
36280;DHT22;22317;47.936;12.742;2023-12-22T04:40:00;0.80;63.50
36280;DHT22;22317;47.936;12.742;2023-12-22T04:42:26;0.70;63.30
36280;DHT22;22317;47.936;12.742;2023-12-22T04:52:11;0.70;63.60
36280;DHT22;22317;47.936;12.742;2023-12-22T04:54:37;0.70;63.80
36280;DHT22;22317;47.936;12.742;2023-12-22T04:57:05;0.70;63.50
36280;DHT22;22317;47.936;12.742;2023-12-22T04:59:30;0.60;63.40
36280;DHT22;22317;47.936;12.742;2023-12-22T05:01:57;0.60;63.60
36280;DHT22;22317;47.936;12.742;2023-12-22T05:09:16;0.60;63.70
36280;DHT22;22317;47.936;12.742;2023-12-22T05:11:42;0.50;63.70
36280;DHT22;22317;47.936;12.742;2023-12-22T05:14:09;0.50;63.70
36280;DHT22;22317;47.936;12.742;2023-12-22T05:16:35;0.50;63.70
36280;DHT22;22317;47.936;12.742;2023-12-22T05:19:00;0.50;63.80
36280;DHT22;22317;47.936;12.742;2023-12-22T05:21:26;0.40;63.90
36280;DHT22;22317;47.936;12.742;2023-12-22T05:23:53;0.40;64.10
36280;DHT22;22317;47.936;12.742;2023-12-22T05:26:22;0.50;64.40
36280;DHT22;22317;47.936;12.742;2023-12-22T05:28:48;0.50;64.60
36280;DHT22;22317;47.936;12.742;2023-12-22T05:33:44;0.60;64.80
36280;DHT22;22317;47.936;12.742;2023-12-22T05:38:39;0.60;65.00
36280;DHT22;22317;47.936;12.742;2023-12-22T05:41:05;0.70;65.10
36280;DHT22;22317;47.936;12.742;2023-12-22T05:46:00;0.80;65.20
36280;DHT22;22317;47.936;12.742;2023-12-22T05:48:26;0.80;65.20
36280;DHT22;22317;47.936;12.742;2023-12-22T05:50:55;0.90;65.30
36280;DHT22;22317;47.936;12.742;2023-12-22T05:53:21;0.90;65.40
36280;DHT22;22317;47.936;12.742;2023-12-22T05:55:47;1.00;65.50
36280;DHT22;22317;47.936;12.742;2023-12-22T06:00:39;1.20;65.80
36280;DHT22;22317;47.936;12.742;2023-12-22T06:03:04;1.30;65.50
36280;DHT22;22317;47.936;12.742;2023-12-22T06:07:57;1.30;65.00
36280;DHT22;22317;47.936;12.742;2023-12-22T06:15:15;1.30;64.70
36280;DHT22;22317;47.936;12.742;2023-12-22T06:20:08;1.30;64.70
36280;DHT22;22317;47.936;12.742;2023-12-22T06:22:34;1.30;64.30
36280;DHT22;22317;47.936;12.742;2023-12-22T06:25:00;1.30;64.20
36280;DHT22;22317;47.936;12.742;2023-12-22T06:27:29;1.20;64.10
36280;DHT22;22317;47.936;12.742;2023-12-22T06:29:56;1.20;64.20
36280;DHT22;22317;47.936;12.742;2023-12-22T06:32:21;1.10;64.20
36280;DHT22;22317;47.936;12.742;2023-12-22T06:34:47;1.10;63.90
36280;DHT22;22317;47.936;12.742;2023-12-22T06:39:39;0.90;64.10
36280;DHT22;22317;47.936;12.742;2023-12-22T06:42:05;0.90;64.40
36280;DHT22;22317;47.936;12.742;2023-12-22T06:51:55;0.80;64.50
36280;DHT22;22317;47.936;12.742;2023-12-22T06:54:21;0.80;64.70
36280;DHT22;22317;47.936;12.742;2023-12-22T06:56:47;0.80;64.80
36280;DHT22;22317;47.936;12.742;2023-12-22T07:04:05;0.70;64.30
36280;DHT22;22317;47.936;12.742;2023-12-22T07:06:33;0.70;64.50
36280;DHT22;22317;47.936;12.742;2023-12-22T07:11:47;0.70;64.70
36280;DHT22;22317;47.936;12.742;2023-12-22T07:16:39;0.70;64.60
36280;DHT22;22317;47.936;12.742;2023-12-22T07:23:58;0.80;64.90
36280;DHT22;22317;47.936;12.742;2023-12-22T07:26:24;0.80;64.80
36280;DHT22;22317;47.936;12.742;2023-12-22T07:33:45;0.80;64.80
36280;DHT22;22317;47.936;12.742;2023-12-22T07:38:38;0.80;65.00
36280;DHT22;22317;47.936;12.742;2023-12-22T07:48:24;1.10;65.20
36280;DHT22;22317;47.936;12.742;2023-12-22T07:50:50;1.20;65.30
36280;DHT22;22317;47.936;12.742;2023-12-22T07:53:16;1.30;65.20
36280;DHT22;22317;47.936;12.742;2023-12-22T07:55:43;1.40;65.20
36280;DHT22;22317;47.936;12.742;2023-12-22T07:58:09;1.50;65.00
36280;DHT22;22317;47.936;12.742;2023-12-22T08:03:01;1.60;64.80
36280;DHT22;22317;47.936;12.742;2023-12-22T08:05:27;1.60;64.70
36280;DHT22;22317;47.936;12.742;2023-12-22T08:07:52;1.70;64.60
36280;DHT22;22317;47.936;12.742;2023-12-22T08:10:18;1.70;64.40
36280;DHT22;22317;47.936;12.742;2023-12-22T08:12:44;1.60;64.30
36280;DHT22;22317;47.936;12.742;2023-12-22T08:20:06;1.60;63.80
36280;DHT22;22317;47.936;12.742;2023-12-22T08:22:34;1.50;63.50
36280;DHT22;22317;47.936;12.742;2023-12-22T08:24:59;1.40;63.60
36280;DHT22;22317;47.936;12.742;2023-12-22T08:32:17;1.10;63.80
36280;DHT22;22317;47.936;12.742;2023-12-22T08:42:02;1.00;64.60
36280;DHT22;22317;47.936;12.742;2023-12-22T08:44:27;0.90;64.40
36280;DHT22;22317;47.936;12.742;2023-12-22T08:54:14;0.70;64.60
36280;DHT22;22317;47.936;12.742;2023-12-22T08:56:42;0.70;64.70
36280;DHT22;22317;47.936;12.742;2023-12-22T09:01:34;0.70;65.20
36280;DHT22;22317;47.936;12.742;2023-12-22T09:04:00;0.80;65.30
36280;DHT22;22317;47.936;12.742;2023-12-22T09:06:28;0.80;65.20
36280;DHT22;22317;47.936;12.742;2023-12-22T09:11:20;0.90;65.40
36280;DHT22;22317;47.936;12.742;2023-12-22T09:13:47;0.90;65.50
36280;DHT22;22317;47.936;12.742;2023-12-22T09:16:12;1.00;65.70
36280;DHT22;22317;47.936;12.742;2023-12-22T09:18:43;1.00;65.70
36280;DHT22;22317;47.936;12.742;2023-12-22T09:21:10;1.10;65.60
36280;DHT22;22317;47.936;12.742;2023-12-22T09:28:30;1.20;65.70
36280;DHT22;22317;47.936;12.742;2023-12-22T09:33:22;1.20;65.40
36280;DHT22;22317;47.936;12.742;2023-12-22T09:35:48;1.20;65.40
36280;DHT22;22317;47.936;12.742;2023-12-22T09:38:14;1.20;65.40
36280;DHT22;22317;47.936;12.742;2023-12-22T09:40:41;1.10;65.30
36280;DHT22;22317;47.936;12.742;2023-12-22T09:43:09;1.10;65.60
36280;DHT22;22317;47.936;12.742;2023-12-22T09:50:30;1.10;66.00
36280;DHT22;22317;47.936;12.742;2023-12-22T09:52:56;1.20;66.00
36280;DHT22;22317;47.936;12.742;2023-12-22T09:55:23;1.20;66.10
36280;DHT22;22317;47.936;12.742;2023-12-22T09:57:52;1.20;66.00
36280;DHT22;22317;47.936;12.742;2023-12-22T10:00:18;1.20;66.10
36280;DHT22;22317;47.936;12.742;2023-12-22T10:02:45;1.20;66.20
36280;DHT22;22317;47.936;12.742;2023-12-22T10:05:12;1.30;66.50
36280;DHT22;22317;47.936;12.742;2023-12-22T10:07:41;1.40;66.50
36280;DHT22;22317;47.936;12.742;2023-12-22T10:10:10;1.50;66.60
36280;DHT22;22317;47.936;12.742;2023-12-22T10:12:38;1.60;66.60
36280;DHT22;22317;47.936;12.742;2023-12-22T10:15:05;1.60;66.60
36280;DHT22;22317;47.936;12.742;2023-12-22T10:17:32;1.70;66.50
36280;DHT22;22317;47.936;12.742;2023-12-22T10:19:58;1.80;66.50
36280;DHT22;22317;47.936;12.742;2023-12-22T10:22:24;1.80;66.50
36280;DHT22;22317;47.936;12.742;2023-12-22T10:27:23;1.90;66.80
36280;DHT22;22317;47.936;12.742;2023-12-22T10:29:56;2.00;66.90
36280;DHT22;22317;47.936;12.742;2023-12-22T10:32:22;2.10;66.90
36280;DHT22;22317;47.936;12.742;2023-12-22T10:34:51;2.10;66.80
36280;DHT22;22317;47.936;12.742;2023-12-22T10:37:17;2.10;66.90
36280;DHT22;22317;47.936;12.742;2023-12-22T10:39:43;2.20;67.00
36280;DHT22;22317;47.936;12.742;2023-12-22T10:44:40;2.30;67.00
36280;DHT22;22317;47.936;12.742;2023-12-22T10:47:07;2.30;67.10
36280;DHT22;22317;47.936;12.742;2023-12-22T10:49:33;2.40;67.10
36280;DHT22;22317;47.936;12.742;2023-12-22T10:51:59;2.40;67.00
36280;DHT22;22317;47.936;12.742;2023-12-22T10:54:25;2.40;67.00
36280;DHT22;22317;47.936;12.742;2023-12-22T10:57:01;2.50;67.10
36280;DHT22;22317;47.936;12.742;2023-12-22T10:59:30;2.50;66.90
36280;DHT22;22317;47.936;12.742;2023-12-22T11:01:58;2.60;66.90
36280;DHT22;22317;47.936;12.742;2023-12-22T11:04:30;2.60;66.70
36280;DHT22;22317;47.936;12.742;2023-12-22T11:07:03;2.60;66.60
36280;DHT22;22317;47.936;12.742;2023-12-22T11:09:31;2.60;66.60
36280;DHT22;22317;47.936;12.742;2023-12-22T11:11:58;2.60;66.70
36280;DHT22;22317;47.936;12.742;2023-12-22T11:14:29;2.60;66.50
36280;DHT22;22317;47.936;12.742;2023-12-22T11:16:57;2.40;66.20
36280;DHT22;22317;47.936;12.742;2023-12-22T11:19:25;2.60;66.20
36280;DHT22;22317;47.936;12.742;2023-12-22T11:21:53;2.50;66.20
36280;DHT22;22317;47.936;12.742;2023-12-22T11:24:20;2.50;66.30
36280;DHT22;22317;47.936;12.742;2023-12-22T11:26:47;2.50;66.20
36280;DHT22;22317;47.936;12.742;2023-12-22T11:29:15;2.50;66.00
36280;DHT22;22317;47.936;12.742;2023-12-22T11:31:45;2.40;65.90
36280;DHT22;22317;47.936;12.742;2023-12-22T11:34:14;2.40;65.80
36280;DHT22;22317;47.936;12.742;2023-12-22T11:36:43;2.40;66.00
36280;DHT22;22317;47.936;12.742;2023-12-22T11:41:37;2.40;66.00
36280;DHT22;22317;47.936;12.742;2023-12-22T11:44:05;2.30;66.00
36280;DHT22;22317;47.936;12.742;2023-12-22T11:48:59;2.20;65.90
36280;DHT22;22317;47.936;12.742;2023-12-22T11:51:31;2.30;66.10
36280;DHT22;22317;47.936;12.742;2023-12-22T11:56:24;2.30;66.00
36280;DHT22;22317;47.936;12.742;2023-12-22T11:58:52;2.30;65.90
36280;DHT22;22317;47.936;12.742;2023-12-22T12:01:22;2.30;66.00
36280;DHT22;22317;47.936;12.742;2023-12-22T12:03:56;2.30;66.10
36280;DHT22;22317;47.936;12.742;2023-12-22T12:06:30;2.30;66.20
36280;DHT22;22317;47.936;12.742;2023-12-22T12:09:06;2.30;66.10
36280;DHT22;22317;47.936;12.742;2023-12-22T12:14:22;2.30;66.20
36280;DHT22;22317;47.936;12.742;2023-12-22T12:16:48;2.20;66.30
36280;DHT22;22317;47.936;12.742;2023-12-22T12:19:15;2.20;66.40
36280;DHT22;22317;47.936;12.742;2023-12-22T12:21:41;2.30;66.60
36280;DHT22;22317;47.936;12.742;2023-12-22T12:24:08;2.30;66.70
36280;DHT22;22317;47.936;12.742;2023-12-22T12:26:36;2.30;66.90
36280;DHT22;22317;47.936;12.742;2023-12-22T12:29:02;2.30;66.90
36280;DHT22;22317;47.936;12.742;2023-12-22T12:31:38;2.30;67.10
36280;DHT22;22317;47.936;12.742;2023-12-22T12:34:05;2.20;67.10
36280;DHT22;22317;47.936;12.742;2023-12-22T12:36:32;2.40;67.20
36280;DHT22;22317;47.936;12.742;2023-12-22T12:39:09;2.40;67.30
36280;DHT22;22317;47.936;12.742;2023-12-22T12:41:43;2.40;67.40
36280;DHT22;22317;47.936;12.742;2023-12-22T12:44:11;2.40;67.40
36280;DHT22;22317;47.936;12.742;2023-12-22T12:46:38;2.50;67.60
36280;DHT22;22317;47.936;12.742;2023-12-22T12:49:08;2.50;67.60
36280;DHT22;22317;47.936;12.742;2023-12-22T12:51:49;2.50;67.60
36280;DHT22;22317;47.936;12.742;2023-12-22T12:54:15;2.50;67.60
36280;DHT22;22317;47.936;12.742;2023-12-22T12:56:46;2.60;67.70
36280;DHT22;22317;47.936;12.742;2023-12-22T12:59:14;2.60;67.80
36280;DHT22;22317;47.936;12.742;2023-12-22T13:01:46;2.60;67.80
36280;DHT22;22317;47.936;12.742;2023-12-22T13:06:50;2.70;68.00
36280;DHT22;22317;47.936;12.742;2023-12-22T13:09:17;2.70;67.90
36280;DHT22;22317;47.936;12.742;2023-12-22T13:11:45;2.70;67.90
36280;DHT22;22317;47.936;12.742;2023-12-22T13:14:23;2.80;68.00
36280;DHT22;22317;47.936;12.742;2023-12-22T13:16:54;2.80;68.00
36280;DHT22;22317;47.936;12.742;2023-12-22T13:19:22;2.90;68.00
36280;DHT22;22317;47.936;12.742;2023-12-22T13:24:16;2.90;68.00
36280;DHT22;22317;47.936;12.742;2023-12-22T13:26:43;2.90;68.10
36280;DHT22;22317;47.936;12.742;2023-12-22T13:29:10;3.00;68.10
36280;DHT22;22317;47.936;12.742;2023-12-22T13:31:37;3.10;68.10
36280;DHT22;22317;47.936;12.742;2023-12-22T13:34:17;3.10;67.70
36280;DHT22;22317;47.936;12.742;2023-12-22T13:39:10;3.20;67.90
36280;DHT22;22317;47.936;12.742;2023-12-22T13:41:41;3.10;67.70
36280;DHT22;22317;47.936;12.742;2023-12-22T13:46:38;3.20;67.70
36280;DHT22;22317;47.936;12.742;2023-12-22T13:49:10;3.20;67.60
36280;DHT22;22317;47.936;12.742;2023-12-22T13:51:43;3.20;67.70
36280;DHT22;22317;47.936;12.742;2023-12-22T13:56:37;3.20;67.60
36280;DHT22;22317;47.936;12.742;2023-12-22T14:01:32;3.30;67.70
36280;DHT22;22317;47.936;12.742;2023-12-22T14:03:58;3.30;67.70
36280;DHT22;22317;47.936;12.742;2023-12-22T14:06:28;3.30;67.60
36280;DHT22;22317;47.936;12.742;2023-12-22T14:08:55;3.30;67.50
36280;DHT22;22317;47.936;12.742;2023-12-22T14:11:21;3.30;67.50
36280;DHT22;22317;47.936;12.742;2023-12-22T14:13:47;3.20;67.50
36280;DHT22;22317;47.936;12.742;2023-12-22T14:18:41;3.20;67.60
36280;DHT22;22317;47.936;12.742;2023-12-22T14:21:07;3.20;67.50
36280;DHT22;22317;47.936;12.742;2023-12-22T14:23:33;3.20;67.40
36280;DHT22;22317;47.936;12.742;2023-12-22T14:25:59;3.10;67.40
36280;DHT22;22317;47.936;12.742;2023-12-22T14:28:26;3.20;67.60
36280;DHT22;22317;47.936;12.742;2023-12-22T14:30:53;3.20;67.60
36280;DHT22;22317;47.936;12.742;2023-12-22T14:35:45;3.10;67.60
36280;DHT22;22317;47.936;12.742;2023-12-22T14:57:43;3.00;67.60
36280;DHT22;22317;47.936;12.742;2023-12-22T15:14:46;2.90;68.20
36280;DHT22;22317;47.936;12.742;2023-12-22T15:17:13;2.90;68.30
36280;DHT22;22317;47.936;12.742;2023-12-22T15:19:42;3.00;68.40
36280;DHT22;22317;47.936;12.742;2023-12-22T15:22:09;3.00;68.40
36280;DHT22;22317;47.936;12.742;2023-12-22T15:24:40;3.00;68.50
36280;DHT22;22317;47.936;12.742;2023-12-22T15:27:09;3.00;68.50
36280;DHT22;22317;47.936;12.742;2023-12-22T15:29:35;3.00;68.40
36280;DHT22;22317;47.936;12.742;2023-12-22T15:32:01;3.10;68.40
36280;DHT22;22317;47.936;12.742;2023-12-22T15:34:27;3.10;68.40
36280;DHT22;22317;47.936;12.742;2023-12-22T15:36:53;3.10;68.50
36280;DHT22;22317;47.936;12.742;2023-12-22T15:39:20;3.10;68.40
36280;DHT22;22317;47.936;12.742;2023-12-22T15:41:47;3.10;68.40
36280;DHT22;22317;47.936;12.742;2023-12-22T15:44:13;3.10;68.40
36280;DHT22;22317;47.936;12.742;2023-12-22T15:46:38;3.20;68.50
36280;DHT22;22317;47.936;12.742;2023-12-22T15:53:57;3.20;68.40
36280;DHT22;22317;47.936;12.742;2023-12-22T15:56:23;3.20;68.40
36280;DHT22;22317;47.936;12.742;2023-12-22T16:01:15;3.30;68.30
36280;DHT22;22317;47.936;12.742;2023-12-22T16:03:42;3.30;68.30
36280;DHT22;22317;47.936;12.742;2023-12-22T16:06:08;3.40;68.40
36280;DHT22;22317;47.936;12.742;2023-12-22T16:08:35;3.40;68.30
36280;DHT22;22317;47.936;12.742;2023-12-22T16:11:04;3.40;68.20
36280;DHT22;22317;47.936;12.742;2023-12-22T16:13:33;3.40;68.10
36280;DHT22;22317;47.936;12.742;2023-12-22T16:16:00;3.40;68.20
36280;DHT22;22317;47.936;12.742;2023-12-22T16:20:53;3.40;68.30
36280;DHT22;22317;47.936;12.742;2023-12-22T16:23:18;3.40;68.20
36280;DHT22;22317;47.936;12.742;2023-12-22T16:25:51;3.40;68.20
36280;DHT22;22317;47.936;12.742;2023-12-22T16:28:21;3.40;68.20
36280;DHT22;22317;47.936;12.742;2023-12-22T16:30:47;3.40;68.20
36280;DHT22;22317;47.936;12.742;2023-12-22T16:33:13;3.40;68.30
36280;DHT22;22317;47.936;12.742;2023-12-22T16:35:39;3.40;68.40
36280;DHT22;22317;47.936;12.742;2023-12-22T16:38:06;3.50;68.30
36280;DHT22;22317;47.936;12.742;2023-12-22T16:40:31;3.40;68.30
36280;DHT22;22317;47.936;12.742;2023-12-22T16:42:57;3.50;68.30
36280;DHT22;22317;47.936;12.742;2023-12-22T16:45:23;3.50;68.30
36280;DHT22;22317;47.936;12.742;2023-12-22T16:47:51;3.50;68.30
36280;DHT22;22317;47.936;12.742;2023-12-22T16:50:17;3.50;68.20
36280;DHT22;22317;47.936;12.742;2023-12-22T16:52:43;3.50;68.20
36280;DHT22;22317;47.936;12.742;2023-12-22T16:57:35;3.60;68.30
36280;DHT22;22317;47.936;12.742;2023-12-22T17:00:05;3.60;68.30
36280;DHT22;22317;47.936;12.742;2023-12-22T17:02:31;3.60;68.30
36280;DHT22;22317;47.936;12.742;2023-12-22T17:04:59;3.70;68.40
36280;DHT22;22317;47.936;12.742;2023-12-22T17:09:51;3.60;68.20
36280;DHT22;22317;47.936;12.742;2023-12-22T17:22:01;3.80;68.10
36280;DHT22;22317;47.936;12.742;2023-12-22T17:36:38;4.00;68.10
36280;DHT22;22317;47.936;12.742;2023-12-22T17:43:57;4.00;67.90
36280;DHT22;22317;47.936;12.742;2023-12-22T17:46:22;3.90;67.90
36280;DHT22;22317;47.936;12.742;2023-12-22T17:53:40;4.00;68.10
36280;DHT22;22317;47.936;12.742;2023-12-22T18:03:27;4.00;68.20
36280;DHT22;22317;47.936;12.742;2023-12-22T18:13:11;4.10;68.30
36280;DHT22;22317;47.936;12.742;2023-12-22T18:15:37;4.10;68.20
36280;DHT22;22317;47.936;12.742;2023-12-22T18:20:29;4.00;68.20
36280;DHT22;22317;47.936;12.742;2023-12-22T18:30:13;4.10;68.50
36280;DHT22;22317;47.936;12.742;2023-12-22T18:35:06;4.10;68.70
36280;DHT22;22317;47.936;12.742;2023-12-22T18:37:32;4.10;68.60
36280;DHT22;22317;47.936;12.742;2023-12-22T18:42:24;4.10;68.60
36280;DHT22;22317;47.936;12.742;2023-12-22T18:47:18;4.10;68.50
36280;DHT22;22317;47.936;12.742;2023-12-22T19:04:20;4.20;69.00
36280;DHT22;22317;47.936;12.742;2023-12-22T19:16:35;4.20;69.00
36280;DHT22;22317;47.936;12.742;2023-12-22T19:19:00;4.20;69.00
36280;DHT22;22317;47.936;12.742;2023-12-22T19:21:28;4.20;69.10
36280;DHT22;22317;47.936;12.742;2023-12-22T19:23:53;4.30;69.10
36280;DHT22;22317;47.936;12.742;2023-12-22T19:26:19;4.30;69.10
36280;DHT22;22317;47.936;12.742;2023-12-22T19:28:45;4.30;69.10
36280;DHT22;22317;47.936;12.742;2023-12-22T19:33:37;4.30;69.10
36280;DHT22;22317;47.936;12.742;2023-12-22T19:36:05;4.30;69.00
36280;DHT22;22317;47.936;12.742;2023-12-22T19:43:26;4.30;69.10
36280;DHT22;22317;47.936;12.742;2023-12-22T19:45:51;4.40;69.20
36280;DHT22;22317;47.936;12.742;2023-12-22T19:48:17;4.40;69.20
36280;DHT22;22317;47.936;12.742;2023-12-22T19:50:43;4.40;69.30
36280;DHT22;22317;47.936;12.742;2023-12-22T19:53:10;4.40;69.20
36280;DHT22;22317;47.936;12.742;2023-12-22T19:55:36;4.40;69.60
36280;DHT22;22317;47.936;12.742;2023-12-22T19:58:03;4.50;69.60
36280;DHT22;22317;47.936;12.742;2023-12-22T20:00:29;4.40;69.70
36280;DHT22;22317;47.936;12.742;2023-12-22T20:02:54;4.40;69.10
36280;DHT22;22317;47.936;12.742;2023-12-22T20:05:20;4.40;69.10
36280;DHT22;22317;47.936;12.742;2023-12-22T20:07:46;4.40;69.20
36280;DHT22;22317;47.936;12.742;2023-12-22T20:10:12;4.50;69.20
36280;DHT22;22317;47.936;12.742;2023-12-22T20:12:38;4.40;69.60
36280;DHT22;22317;47.936;12.742;2023-12-22T20:15:12;4.50;69.60
36280;DHT22;22317;47.936;12.742;2023-12-22T20:17:38;4.50;69.70
36280;DHT22;22317;47.936;12.742;2023-12-22T20:20:06;4.50;69.70
36280;DHT22;22317;47.936;12.742;2023-12-22T20:22:32;4.50;69.20
36280;DHT22;22317;47.936;12.742;2023-12-22T20:24:58;4.60;69.70
36280;DHT22;22317;47.936;12.742;2023-12-22T20:27:24;4.50;69.10
36280;DHT22;22317;47.936;12.742;2023-12-22T20:32:16;4.50;69.10
36280;DHT22;22317;47.936;12.742;2023-12-22T20:34:41;4.40;69.50
36280;DHT22;22317;47.936;12.742;2023-12-22T20:37:07;4.50;69.30
36280;DHT22;22317;47.936;12.742;2023-12-22T20:41:59;4.50;69.20
36280;DHT22;22317;47.936;12.742;2023-12-22T20:44:25;4.50;69.20
36280;DHT22;22317;47.936;12.742;2023-12-22T20:46:52;4.50;69.20
36280;DHT22;22317;47.936;12.742;2023-12-22T20:49:18;4.50;69.70
36280;DHT22;22317;47.936;12.742;2023-12-22T20:51:44;4.50;70.30
36280;DHT22;22317;47.936;12.742;2023-12-22T20:54:16;4.50;69.20
36280;DHT22;22317;47.936;12.742;2023-12-22T20:56:42;5.80;70.40
36280;DHT22;22317;47.936;12.742;2023-12-22T20:59:07;4.50;69.30
36280;DHT22;22317;47.936;12.742;2023-12-22T21:01:33;4.50;69.30
36280;DHT22;22317;47.936;12.742;2023-12-22T21:03:59;4.50;69.80
36280;DHT22;22317;47.936;12.742;2023-12-22T21:06:25;4.60;69.40
36280;DHT22;22317;47.936;12.742;2023-12-22T21:11:21;4.60;69.20
36280;DHT22;22317;47.936;12.742;2023-12-22T21:13:47;4.60;69.10
36280;DHT22;22317;47.936;12.742;2023-12-22T21:21:05;4.70;69.00
36280;DHT22;22317;47.936;12.742;2023-12-22T21:23:33;4.70;69.00
36280;DHT22;22317;47.936;12.742;2023-12-22T21:33:18;4.80;68.70